Napo, China
Current Conditions -  °F | °C
As of 11:00 PM on Sunday 21 Dec 2014 (Local Time) from ZGNN Reporting Station
Clear Clear  
Wind Chill: 52°   Ceiling: Unl
Heat Index: 52°   Visibility: 6mi
Dew Point: 39°   Wind: 7mph
Humidity: 62%   Direction: 350°N
Pressure: 30.36"   Gusts: NA
Location:  23.3°N, 105.95°E
Report Text: ZGNN 211500Z 35003MPS CAVOK 11/04 Q1028 NOSIG
Loading
Personal Weather Stations






























Interactive Weather Map New forecast layout! Learn more

10-Day Weather Forecast

Advertisements
Track Severe Weather on mobile